createdAt,value
2022-08-08T00:00:55.093Z,0.70
2022-08-08T00:02:43.065Z,0.80
2022-08-08T00:05:18.530Z,0.63
2022-08-08T00:07:57.481Z,0.77
2022-08-08T00:10:40.133Z,0.83
2022-08-08T00:14:17.549Z,0.73
2022-08-08T00:16:16.376Z,0.70
2022-08-08T00:18:51.081Z,0.70
2022-08-08T00:21:23.275Z,0.83
2022-08-08T00:23:58.647Z,0.67
2022-08-08T00:26:40.988Z,0.80
2022-08-08T00:29:17.475Z,0.70
2022-08-08T00:32:19.911Z,0.70
2022-08-08T00:35:26.690Z,0.73
2022-08-08T00:38:31.417Z,0.57
2022-08-08T00:41:45.089Z,0.67
2022-08-08T00:44:38.683Z,0.70
2022-08-08T00:48:01.701Z,0.70
2022-08-08T00:51:15.222Z,0.80
2022-08-08T00:54:17.228Z,0.80
2022-08-08T00:57:40.646Z,0.90
2022-08-08T01:00:12.911Z,0.80
2022-08-08T01:04:01.821Z,0.60
2022-08-08T01:06:36.859Z,0.80
2022-08-08T01:09:41.337Z,0.70
2022-08-08T01:12:36.825Z,0.70
2022-08-08T01:15:44.355Z,0.80
2022-08-08T01:18:52.972Z,0.70
2022-08-08T01:22:11.764Z,0.67
2022-08-08T01:24:53.738Z,0.60
2022-08-08T01:27:59.387Z,0.80
2022-08-08T01:32:02.684Z,0.70
2022-08-08T01:34:39.562Z,1.30
2022-08-08T01:38:01.254Z,1.83
2022-08-08T01:40:38.156Z,0.90
2022-08-08T01:43:16.364Z,0.80
2022-08-08T01:45:56.702Z,1.10
2022-08-08T01:48:39.671Z,0.80
2022-08-08T01:52:43.427Z,0.93
2022-08-08T01:55:18.884Z,0.63
2022-08-08T01:58:12.402Z,0.80
2022-08-08T02:00:44.425Z,0.80
2022-08-08T02:03:55.934Z,0.70
2022-08-08T02:06:49.376Z,0.73
2022-08-08T02:10:01.075Z,0.70
2022-08-08T02:12:25.288Z,0.60
2022-08-08T02:15:03.067Z,1.00
2022-08-08T02:17:43.441Z,0.63
2022-08-08T02:21:01.554Z,0.70
2022-08-08T02:23:20.815Z,0.87
2022-08-08T02:26:00.686Z,0.70
2022-08-08T02:28:48.143Z,0.70
2022-08-08T02:31:59.018Z,0.60
2022-08-08T02:35:08.233Z,1.00
2022-08-08T02:37:52.278Z,0.70
2022-08-08T02:40:39.239Z,0.80
2022-08-08T02:44:34.915Z,0.80
2022-08-08T02:46:45.142Z,0.80
2022-08-08T02:49:51.789Z,0.80
2022-08-08T02:52:38.717Z,0.80
2022-08-08T02:55:38.696Z,0.80
2022-08-08T02:58:53.124Z,0.70
2022-08-08T03:02:30.506Z,0.90
2022-08-08T03:05:27.057Z,0.60
2022-08-08T03:08:54.607Z,0.80
2022-08-08T03:12:02.628Z,0.70
2022-08-08T03:16:01.577Z,0.80
2022-08-08T03:18:06.451Z,0.70
2022-08-08T03:20:46.715Z,0.90
2022-08-08T03:23:23.848Z,0.77
2022-08-08T03:25:59.554Z,0.80
2022-08-08T03:28:33.025Z,1.10
2022-08-08T03:31:25.123Z,0.80
2022-08-08T03:34:00.214Z,0.77
2022-08-08T03:36:30.376Z,0.77
2022-08-08T03:39:14.225Z,0.87
2022-08-08T03:42:27.262Z,0.87
2022-08-08T03:44:34.672Z,0.90
2022-08-08T03:47:19.266Z,0.80
2022-08-08T03:49:58.097Z,1.00
2022-08-08T03:52:32.352Z,0.80
2022-08-08T03:55:10.379Z,0.90
2022-08-08T03:58:34.736Z,0.90
2022-08-08T04:01:01.446Z,0.80
2022-08-08T04:03:59.926Z,1.00
2022-08-08T04:06:24.018Z,1.00
2022-08-08T04:08:58.505Z,0.70
2022-08-08T04:11:57.762Z,0.87
2022-08-08T04:14:35.438Z,0.90
2022-08-08T04:17:15.671Z,0.90
2022-08-08T04:19:51.902Z,0.80
2022-08-08T04:22:24.162Z,0.80
2022-08-08T04:24:57.360Z,0.80
2022-08-08T04:28:02.451Z,0.97
2022-08-08T04:30:17.374Z,0.90
2022-08-08T04:32:48.162Z,0.90
2022-08-08T04:35:20.141Z,0.80
2022-08-08T04:37:50.642Z,1.10
2022-08-08T04:40:19.300Z,1.10
2022-08-08T04:42:56.827Z,1.07
2022-08-08T04:45:25.930Z,1.10
2022-08-08T04:47:54.378Z,0.73
2022-08-08T04:50:24.309Z,1.00
2022-08-08T04:52:58.620Z,0.97
2022-08-08T04:55:46.993Z,0.90
2022-08-08T04:58:18.852Z,1.00
2022-08-08T05:00:47.597Z,0.80
2022-08-08T05:03:18.700Z,1.10
2022-08-08T05:06:13.207Z,1.00
2022-08-08T05:08:51.479Z,0.90
2022-08-08T05:11:22.484Z,0.90
2022-08-08T05:14:00.981Z,0.80
2022-08-08T05:16:55.311Z,1.03
2022-08-08T05:20:12.693Z,0.83
2022-08-08T05:22:08.262Z,1.10
2022-08-08T05:24:37.627Z,1.00
2022-08-08T05:27:06.585Z,1.03
2022-08-08T05:29:37.116Z,0.70
2022-08-08T05:32:07.336Z,0.87
2022-08-08T05:34:38.175Z,0.90
2022-08-08T05:37:07.607Z,0.90
2022-08-08T05:39:48.420Z,0.90
2022-08-08T05:42:19.350Z,0.90
2022-08-08T05:44:51.653Z,0.93
2022-08-08T05:47:22.637Z,0.90
2022-08-08T05:49:54.153Z,1.10
2022-08-08T05:52:32.277Z,0.90
2022-08-08T05:55:07.531Z,1.17
2022-08-08T05:58:05.335Z,1.00
2022-08-08T06:00:34.079Z,1.00
2022-08-08T06:03:23.736Z,0.90
2022-08-08T06:05:56.646Z,1.07
2022-08-08T06:08:34.605Z,0.90
2022-08-08T06:11:05.844Z,1.00
2022-08-08T06:13:47.775Z,1.10
2022-08-08T06:16:19.097Z,0.90
2022-08-08T06:18:48.590Z,1.20
2022-08-08T06:21:33.255Z,0.90
2022-08-08T06:24:22.783Z,1.63
2022-08-08T06:27:02.730Z,1.53
2022-08-08T06:30:00.469Z,1.20
2022-08-08T06:32:30.699Z,1.10
2022-08-08T06:36:00.587Z,1.00
2022-08-08T06:37:56.064Z,1.20
2022-08-08T06:40:27.323Z,1.03
2022-08-08T06:42:56.627Z,1.00
2022-08-08T06:45:25.055Z,1.00
2022-08-08T06:48:01.359Z,1.20
2022-08-08T06:50:33.407Z,0.93
2022-08-08T06:53:14.117Z,0.93
2022-08-08T06:56:00.768Z,0.90
2022-08-08T06:58:32.919Z,1.80
2022-08-08T07:01:24.357Z,1.10
2022-08-08T07:04:39.557Z,1.27
2022-08-08T07:06:51.542Z,1.20
2022-08-08T07:09:21.842Z,1.10
2022-08-08T07:11:59.481Z,1.20
2022-08-08T07:14:36.711Z,0.90
2022-08-08T07:17:09.395Z,0.90
2022-08-08T07:19:59.901Z,0.90
2022-08-08T07:22:36.459Z,1.70
2022-08-08T07:25:06.982Z,1.40
2022-08-08T07:28:00.601Z,1.60
2022-08-08T07:30:26.542Z,2.47
2022-08-08T07:32:59.634Z,0.90
2022-08-08T07:35:31.393Z,0.90
2022-08-08T07:38:10.345Z,1.20
2022-08-08T07:40:48.349Z,0.80
2022-08-08T07:43:35.190Z,0.80
2022-08-08T07:46:23.673Z,0.80
2022-08-08T07:48:52.144Z,1.00
2022-08-08T07:51:23.732Z,0.93
2022-08-08T07:54:26.877Z,1.03
2022-08-08T07:57:04.172Z,1.00
2022-08-08T07:59:48.781Z,1.30
2022-08-08T08:02:36.762Z,1.13
2022-08-08T08:05:14.972Z,0.97
2022-08-08T08:07:53.321Z,1.13
2022-08-08T08:10:30.184Z,1.10
2022-08-08T08:13:25.825Z,0.93
2022-08-08T08:16:16.916Z,1.30
2022-08-08T08:18:52.211Z,0.90
2022-08-08T08:21:44.140Z,0.90
2022-08-08T08:24:18.643Z,1.10
2022-08-08T08:26:52.790Z,1.20
2022-08-08T08:29:23.073Z,0.90
2022-08-08T08:31:57.352Z,1.30
2022-08-08T08:34:32.135Z,1.10
2022-08-08T08:37:07.536Z,0.80
2022-08-08T08:39:59.323Z,1.17
2022-08-08T08:42:29.114Z,1.00
2022-08-08T08:45:10.430Z,0.90
2022-08-08T08:47:53.161Z,0.90
2022-08-08T08:50:33.744Z,1.77
2022-08-08T08:53:27.854Z,1.00
2022-08-08T08:56:01.425Z,0.90
2022-08-08T08:58:33.272Z,1.00
2022-08-08T09:01:08.642Z,1.43
2022-08-08T09:03:47.614Z,0.70
2022-08-08T09:06:28.410Z,0.93
2022-08-08T09:09:03.247Z,0.87
2022-08-08T09:11:35.262Z,0.90
2022-08-08T09:14:17.638Z,0.80
2022-08-08T09:16:47.794Z,1.00
2022-08-08T09:21:53.813Z,0.80
2022-08-08T09:22:07.740Z,1.40
2022-08-08T09:24:36.849Z,0.90
2022-08-08T09:27:14.900Z,0.77
2022-08-08T09:29:56.857Z,0.87
2022-08-08T09:32:37.041Z,0.90
2022-08-08T09:35:08.674Z,1.00
2022-08-08T09:38:01.132Z,0.77
2022-08-08T09:44:06.397Z,0.80
2022-08-08T09:46:45.103Z,1.67
2022-08-08T09:49:42.865Z,1.83
2022-08-08T09:52:55.889Z,1.10
2022-08-08T09:55:07.168Z,0.80
2022-08-08T09:57:46.122Z,1.50
2022-08-08T10:00:53.300Z,1.37
2022-08-08T10:03:07.190Z,0.70
2022-08-08T10:05:36.980Z,0.70
2022-08-08T10:08:09.826Z,1.00
2022-08-08T10:10:41.434Z,1.50
2022-08-08T10:13:25.905Z,0.70
2022-08-08T10:15:59.373Z,0.80
2022-08-08T10:18:30.782Z,1.00
2022-08-08T10:21:22.682Z,0.97
2022-08-08T10:23:58.829Z,0.90
2022-08-08T10:26:57.393Z,0.90
2022-08-08T10:29:23.641Z,1.23
2022-08-08T10:32:15.965Z,0.80
2022-08-08T10:34:57.001Z,0.82
2022-08-08T10:37:31.041Z,0.90
2022-08-08T10:40:12.656Z,0.70
2022-08-08T10:42:46.000Z,0.90
2022-08-08T10:45:16.744Z,1.03
2022-08-08T10:47:55.307Z,0.80
2022-08-08T10:50:32.169Z,1.02
2022-08-08T10:53:07.789Z,0.98
2022-08-08T10:55:45.743Z,0.75
2022-08-08T10:58:15.619Z,0.70
2022-08-08T11:00:53.480Z,0.63
2022-08-08T11:04:00.850Z,1.05
2022-08-08T11:06:34.572Z,2.05
2022-08-08T11:09:15.347Z,1.13
2022-08-08T11:12:04.686Z,0.82
2022-08-08T11:14:50.247Z,0.88
2022-08-08T11:17:58.934Z,0.68
2022-08-08T11:20:14.656Z,1.10
2022-08-08T11:22:50.993Z,0.70
2022-08-08T11:25:53.144Z,0.60
2022-08-08T11:28:16.921Z,0.70
2022-08-08T11:30:50.614Z,0.88
2022-08-08T11:33:52.058Z,0.90
2022-08-08T11:36:18.633Z,0.80
2022-08-08T11:38:54.690Z,0.60
2022-08-08T11:41:24.845Z,1.00
2022-08-08T11:43:57.940Z,1.00
2022-08-08T11:46:31.332Z,0.88
2022-08-08T11:49:01.226Z,0.70
2022-08-08T11:51:40.377Z,0.75
2022-08-08T11:54:32.452Z,0.70
2022-08-08T11:57:16.696Z,1.00
2022-08-08T12:00:02.046Z,0.75
2022-08-08T12:02:45.655Z,0.80
2022-08-08T12:05:14.178Z,0.60
2022-08-08T12:07:49.649Z,0.80
2022-08-08T12:10:21.487Z,0.77
2022-08-08T12:12:51.790Z,0.77
2022-08-08T12:15:42.927Z,0.60
2022-08-08T12:18:18.131Z,0.80
2022-08-08T12:20:50.617Z,0.60
2022-08-08T12:23:42.658Z,0.82
2022-08-08T12:26:28.214Z,0.70
2022-08-08T12:29:21.438Z,0.90
2022-08-08T12:32:02.677Z,0.80
2022-08-08T12:34:40.626Z,0.60
2022-08-08T12:37:11.342Z,0.60
2022-08-08T12:40:01.105Z,0.80
2022-08-08T12:42:33.837Z,0.80
2022-08-08T12:45:53.487Z,0.90
2022-08-08T12:48:09.624Z,0.80
2022-08-08T12:50:49.312Z,0.80
2022-08-08T12:53:30.233Z,0.80
2022-08-08T12:56:18.024Z,0.88
2022-08-08T12:58:49.242Z,0.80
2022-08-08T13:01:28.830Z,0.60
2022-08-08T13:04:18.565Z,0.63
2022-08-08T13:06:55.611Z,0.63
2022-08-08T13:09:43.284Z,0.68
2022-08-08T13:12:32.525Z,1.00
2022-08-08T13:15:04.930Z,0.82
2022-08-08T13:17:54.190Z,0.60
2022-08-08T13:20:24.126Z,0.90
2022-08-08T13:23:31.100Z,0.60
2022-08-08T13:25:50.945Z,0.50
2022-08-08T13:28:32.985Z,0.63
2022-08-08T13:31:03.988Z,0.65
2022-08-08T13:33:41.968Z,0.60
2022-08-08T13:36:11.926Z,0.60
2022-08-08T13:38:41.632Z,0.60
2022-08-08T13:41:16.008Z,0.60
2022-08-08T13:43:47.748Z,0.60
2022-08-08T13:46:27.037Z,0.50
2022-08-08T13:50:33.225Z,0.60
2022-08-08T13:52:01.125Z,0.70
2022-08-08T13:54:32.165Z,0.60
2022-08-08T13:57:02.019Z,0.70
2022-08-08T13:59:33.354Z,0.60
2022-08-08T14:02:07.475Z,0.70
2022-08-08T14:04:53.035Z,0.60
2022-08-08T14:07:29.888Z,0.77
2022-08-08T14:10:05.289Z,1.85
2022-08-08T14:12:45.024Z,0.40
2022-08-08T14:15:31.653Z,0.60
2022-08-08T14:18:35.906Z,0.50
2022-08-08T14:21:02.838Z,0.60
2022-08-08T14:24:07.860Z,0.60
2022-08-08T14:26:29.738Z,0.50
2022-08-08T14:29:06.140Z,0.55
2022-08-08T14:32:09.248Z,0.50
2022-08-08T14:34:38.394Z,0.52
2022-08-08T14:37:09.055Z,0.60
2022-08-08T14:39:47.939Z,0.65
2022-08-08T14:42:17.492Z,0.47
2022-08-08T14:44:55.345Z,0.57
2022-08-08T14:47:25.185Z,0.55
2022-08-08T14:50:10.723Z,0.60
2022-08-08T14:52:46.905Z,0.50
2022-08-08T14:55:22.519Z,0.57
2022-08-08T14:58:11.327Z,0.60
2022-08-08T15:00:40.346Z,0.60
2022-08-08T15:03:14.874Z,0.52
2022-08-08T15:05:53.983Z,0.55
2022-08-08T15:08:35.411Z,0.57
2022-08-08T15:11:10.434Z,0.50
2022-08-08T15:14:01.935Z,0.50
2022-08-08T15:16:34.490Z,0.80
2022-08-08T15:19:05.362Z,0.50
2022-08-08T15:21:37.699Z,0.50
2022-08-08T15:24:12.677Z,0.50
2022-08-08T15:26:44.102Z,0.60
2022-08-08T15:29:22.482Z,0.70
2022-08-08T15:32:18.113Z,0.57
2022-08-08T15:34:42.014Z,0.40
2022-08-08T15:37:10.169Z,0.47
2022-08-08T15:39:41.048Z,0.60
2022-08-08T15:42:17.713Z,0.50
2022-08-08T15:44:58.256Z,0.70
2022-08-08T15:47:26.233Z,0.55
2022-08-08T15:49:55.772Z,0.70
2022-08-08T15:52:25.029Z,0.50
2022-08-08T15:54:54.606Z,0.50
2022-08-08T15:57:23.348Z,0.60
2022-08-08T16:00:17.866Z,0.60
2022-08-08T16:02:50.794Z,0.60
2022-08-08T16:05:23.647Z,0.60
2022-08-08T16:07:54.589Z,0.60
2022-08-08T16:13:27.330Z,0.60
2022-08-08T16:13:28.299Z,0.65
2022-08-08T16:16:09.212Z,0.52
2022-08-08T16:18:53.439Z,0.55
2022-08-08T16:21:29.496Z,0.60
2022-08-08T16:23:58.331Z,0.75
2022-08-08T16:26:34.702Z,0.77
2022-08-08T16:29:09.077Z,0.98
2022-08-08T16:31:41.915Z,0.60
2022-08-08T16:34:12.707Z,0.85
2022-08-08T16:36:43.524Z,0.60
2022-08-08T16:39:28.070Z,0.90
2022-08-08T16:42:01.307Z,0.70
2022-08-08T16:44:33.624Z,0.60
2022-08-08T16:47:41.426Z,0.80
2022-08-08T16:50:15.070Z,0.75
2022-08-08T16:55:02.594Z,0.80
2022-08-08T16:55:55.232Z,0.80
2022-08-08T16:58:29.368Z,0.60
2022-08-08T17:01:05.489Z,0.77
2022-08-08T17:03:58.392Z,0.80
2022-08-08T17:06:37.448Z,0.80
2022-08-08T17:09:14.749Z,0.80
2022-08-08T17:11:48.542Z,0.80
2022-08-08T17:14:18.756Z,0.70
2022-08-08T17:16:57.408Z,0.90
2022-08-08T17:19:27.495Z,0.90
2022-08-08T17:21:57.843Z,0.68
2022-08-08T17:24:32.505Z,0.70
2022-08-08T17:27:02.931Z,0.70
2022-08-08T17:29:36.607Z,0.85
2022-08-08T17:32:11.976Z,0.75
2022-08-08T17:35:00.050Z,0.73
2022-08-08T17:37:28.098Z,0.65
2022-08-08T17:40:10.838Z,1.00
2022-08-08T17:42:41.559Z,0.93
2022-08-08T17:45:23.311Z,0.70
2022-08-08T17:47:54.224Z,0.80
2022-08-08T17:50:23.691Z,0.80
2022-08-08T17:52:52.386Z,0.70
2022-08-08T17:56:05.261Z,0.80
2022-08-08T17:58:11.755Z,0.70
2022-08-08T18:00:41.452Z,1.13
2022-08-08T18:03:13.739Z,0.80
2022-08-08T18:05:47.938Z,0.70
2022-08-08T18:08:25.144Z,0.80
2022-08-08T18:11:11.738Z,0.70
2022-08-08T18:13:42.909Z,0.90
2022-08-08T18:16:11.667Z,0.80
2022-08-08T18:18:45.485Z,0.82
2022-08-08T18:21:34.727Z,0.80
2022-08-08T18:24:17.690Z,0.88
2022-08-08T18:26:56.617Z,0.80
2022-08-08T18:29:33.317Z,1.10
2022-08-08T18:32:05.576Z,0.90
2022-08-08T18:34:36.282Z,0.90
2022-08-08T18:37:08.604Z,1.00
2022-08-08T18:39:38.457Z,1.00
2022-08-08T18:42:15.952Z,1.00
2022-08-08T18:44:55.014Z,1.00
2022-08-08T18:47:26.377Z,0.90
2022-08-08T18:49:58.704Z,1.00
2022-08-08T18:52:30.109Z,1.10
2022-08-08T18:55:00.463Z,1.00
2022-08-08T18:57:45.205Z,0.93
2022-08-08T19:00:20.541Z,1.20
2022-08-08T19:02:55.713Z,1.07
2022-08-08T19:05:34.868Z,1.07
2022-08-08T19:08:23.935Z,1.20
2022-08-08T19:10:54.377Z,1.10
2022-08-08T19:13:25.312Z,0.90
2022-08-08T19:16:09.216Z,0.97
2022-08-08T19:18:51.304Z,0.90
2022-08-08T19:21:30.763Z,1.10
2022-08-08T19:24:05.616Z,1.10
2022-08-08T19:26:34.866Z,1.00
2022-08-08T19:29:04.762Z,1.20
2022-08-08T19:31:34.980Z,0.97
2022-08-08T19:34:35.742Z,1.60
2022-08-08T19:36:55.418Z,1.00
2022-08-08T19:39:35.516Z,1.23
2022-08-08T19:42:04.364Z,1.00
2022-08-08T19:44:45.951Z,1.10
2022-08-08T19:47:14.568Z,1.20
2022-08-08T19:49:43.595Z,1.03
2022-08-08T19:52:35.097Z,1.40
2022-08-08T19:55:08.731Z,0.90
2022-08-08T19:57:38.008Z,1.10
2022-08-08T20:00:29.321Z,1.00
2022-08-08T20:02:59.099Z,1.80
2022-08-08T20:06:15.434Z,1.00
2022-08-08T20:08:29.967Z,1.00
2022-08-08T20:10:59.961Z,1.10
2022-08-08T20:14:34.653Z,1.00
2022-08-08T20:16:18.294Z,1.10
2022-08-08T20:18:53.189Z,1.00
2022-08-08T20:21:25.434Z,1.10
2022-08-08T20:23:58.058Z,1.10
2022-08-08T20:26:30.077Z,1.20
2022-08-08T20:29:01.338Z,1.53
2022-08-08T20:32:02.677Z,1.30
2022-08-08T20:34:29.794Z,1.10
2022-08-08T20:37:00.650Z,1.20
2022-08-08T20:39:39.575Z,1.40
2022-08-08T20:42:17.335Z,1.43
2022-08-08T20:44:45.288Z,1.17
2022-08-08T20:47:23.051Z,1.40
2022-08-08T20:49:54.411Z,1.33
2022-08-08T20:52:25.641Z,1.37
2022-08-08T20:54:53.566Z,1.30
2022-08-08T20:57:21.922Z,1.20
2022-08-08T20:59:50.012Z,1.23
2022-08-08T21:02:25.336Z,1.23
2022-08-08T21:04:57.357Z,1.20
2022-08-08T21:07:47.311Z,1.20
2022-08-08T21:10:17.257Z,1.23
2022-08-08T21:12:48.423Z,1.47
2022-08-08T21:16:05.685Z,1.30
2022-08-08T21:18:10.292Z,1.27
2022-08-08T21:20:39.868Z,1.27
2022-08-08T21:23:17.902Z,1.17
2022-08-08T21:25:48.867Z,1.20
2022-08-08T21:28:33.419Z,1.30
2022-08-08T21:31:06.015Z,1.23
2022-08-08T21:33:53.563Z,1.10
2022-08-08T21:36:28.539Z,1.10
2022-08-08T21:38:58.003Z,1.30
2022-08-08T21:41:38.449Z,1.20
2022-08-08T21:44:14.956Z,1.17
2022-08-08T21:48:06.099Z,1.23
2022-08-08T21:49:34.765Z,1.50
2022-08-08T21:54:31.738Z,1.40
2022-08-08T21:55:02.258Z,1.40
2022-08-08T21:57:42.560Z,1.60
2022-08-08T22:00:14.659Z,1.40
2022-08-08T22:02:43.146Z,1.70
2022-08-08T22:05:14.864Z,1.73
2022-08-08T22:07:48.350Z,1.50
2022-08-08T22:10:28.652Z,1.50
2022-08-08T22:13:18.826Z,1.50
2022-08-08T22:15:59.088Z,1.53
2022-08-08T22:18:30.959Z,1.60
2022-08-08T22:21:14.301Z,2.00
2022-08-08T22:23:51.621Z,1.50
2022-08-08T22:26:29.542Z,1.77
2022-08-08T22:29:04.026Z,2.03
2022-08-08T22:31:43.912Z,1.70
2022-08-08T22:34:27.124Z,2.20
2022-08-08T22:36:56.425Z,1.97
2022-08-08T22:39:39.532Z,2.20
2022-08-08T22:42:12.210Z,2.10
2022-08-08T22:44:40.025Z,2.10
2022-08-08T22:47:17.609Z,1.77
2022-08-08T22:49:54.191Z,1.90
2022-08-08T22:52:33.515Z,1.87
2022-08-08T22:55:05.559Z,2.13
2022-08-08T22:57:44.191Z,1.90
2022-08-08T23:00:18.483Z,1.87
2022-08-08T23:02:50.227Z,2.20
2022-08-08T23:05:21.442Z,2.03
2022-08-08T23:07:58.026Z,2.00
2022-08-08T23:10:26.959Z,1.93
2022-08-08T23:12:56.191Z,2.10
2022-08-08T23:16:38.799Z,1.90
2022-08-08T23:18:13.086Z,1.87
2022-08-08T23:20:43.532Z,1.90
2022-08-08T23:23:13.507Z,1.90
2022-08-08T23:25:48.381Z,2.10
2022-08-08T23:28:18.955Z,2.20
2022-08-08T23:30:48.736Z,1.93
2022-08-08T23:33:18.981Z,1.80
2022-08-08T23:36:07.332Z,2.03
2022-08-08T23:38:44.049Z,2.00
2022-08-08T23:41:22.891Z,2.40
2022-08-08T23:43:56.859Z,1.97
2022-08-08T23:49:03.737Z,2.07
2022-08-08T23:49:18.224Z,2.17
2022-08-08T23:52:05.933Z,2.00
2022-08-08T23:54:41.430Z,2.20
2022-08-08T23:57:25.206Z,2.00
